createdAt,value
2022-11-15T00:01:59.210Z,14.50
2022-11-15T00:04:45.006Z,14.50
2022-11-15T00:07:54.712Z,14.40
2022-11-15T00:10:38.375Z,14.40
2022-11-15T00:13:24.452Z,14.40
2022-11-15T00:16:11.574Z,14.30
2022-11-15T00:18:58.489Z,14.30
2022-11-15T00:21:44.443Z,14.20
2022-11-15T00:24:30.154Z,14.20
2022-11-15T00:27:16.318Z,14.30
2022-11-15T00:30:02.258Z,14.20
2022-11-15T00:32:48.631Z,14.20
2022-11-15T00:35:35.430Z,14.10
2022-11-15T00:38:21.221Z,14.10
2022-11-15T00:41:09.865Z,14.10
2022-11-15T00:43:56.036Z,14.10
2022-11-15T00:46:42.175Z,14.10
2022-11-15T00:49:27.547Z,14.10
2022-11-15T00:52:13.206Z,14.10
2022-11-15T00:54:58.830Z,14.10
2022-11-15T00:57:45.429Z,14.10
2022-11-15T01:00:31.352Z,14.10
2022-11-15T01:03:17.138Z,14.10
2022-11-15T01:06:02.645Z,14.10
2022-11-15T01:08:48.607Z,14.10
2022-11-15T01:11:34.546Z,14.10
2022-11-15T01:14:25.192Z,14.00
2022-11-15T01:17:11.383Z,14.00
2022-11-15T01:19:57.156Z,13.90
2022-11-15T01:22:43.086Z,13.80
2022-11-15T01:25:29.352Z,13.80
2022-11-15T01:28:15.238Z,13.80
2022-11-15T01:31:02.222Z,13.70
2022-11-15T01:33:49.172Z,13.80
2022-11-15T01:36:34.893Z,13.70
2022-11-15T01:39:20.861Z,13.70
2022-11-15T01:42:06.638Z,13.80
2022-11-15T01:44:55.839Z,13.80
2022-11-15T01:47:47.088Z,13.80
2022-11-15T01:50:34.051Z,13.80
2022-11-15T01:53:22.571Z,13.80
2022-11-15T01:56:11.576Z,13.70
2022-11-15T01:58:59.515Z,13.80
2022-11-15T02:01:45.812Z,13.80
2022-11-15T02:04:38.760Z,13.70
2022-11-15T02:07:25.067Z,13.70
2022-11-15T02:10:18.226Z,13.70
2022-11-15T02:13:04.313Z,13.70
2022-11-15T02:16:14.671Z,13.70
2022-11-15T02:19:32.382Z,13.70
2022-11-15T02:22:52.206Z,13.80
2022-11-15T02:25:49.894Z,13.80
2022-11-15T02:28:52.002Z,13.80
2022-11-15T02:32:04.479Z,13.80
2022-11-15T02:35:40.967Z,13.90
2022-11-15T02:38:53.552Z,13.90
2022-11-15T02:41:56.668Z,13.80
2022-11-15T02:44:46.984Z,13.80
2022-11-15T02:47:39.069Z,13.70
2022-11-15T02:50:28.290Z,13.70
2022-11-15T02:53:16.125Z,13.60
2022-11-15T02:56:01.819Z,13.50
2022-11-15T02:59:26.176Z,13.50
2022-11-15T03:02:29.643Z,13.50
2022-11-15T03:05:19.955Z,13.50
2022-11-15T03:08:27.165Z,13.40
2022-11-15T03:11:22.652Z,13.40
2022-11-15T03:14:46.382Z,13.40
2022-11-15T03:17:37.101Z,13.40
2022-11-15T03:20:23.615Z,13.40
2022-11-15T03:23:11.982Z,13.40
2022-11-15T03:25:59.262Z,13.40
2022-11-15T03:29:04.353Z,13.40
2022-11-15T03:31:55.954Z,13.40
2022-11-15T03:35:05.855Z,13.40
2022-11-15T03:38:12.140Z,13.40
2022-11-15T03:41:09.651Z,13.40
2022-11-15T03:44:06.331Z,13.40
2022-11-15T03:47:15.239Z,13.40
2022-11-15T03:50:06.097Z,13.40
2022-11-15T03:52:52.287Z,13.30
2022-11-15T03:55:38.502Z,13.40
2022-11-15T03:58:24.092Z,13.40
2022-11-15T04:01:10.129Z,13.40
2022-11-15T04:03:55.922Z,13.40
2022-11-15T04:06:41.961Z,13.30
2022-11-15T04:09:27.670Z,13.30
2022-11-15T04:12:13.785Z,13.40
2022-11-15T04:15:12.381Z,13.30
2022-11-15T04:17:59.007Z,13.30
2022-11-15T04:21:03.138Z,13.30
2022-11-15T04:23:48.900Z,13.30
2022-11-15T04:26:35.025Z,13.20
2022-11-15T04:29:35.322Z,13.20
2022-11-15T04:32:20.905Z,13.10
2022-11-15T04:35:07.124Z,13.10
2022-11-15T04:37:53.012Z,13.00
2022-11-15T04:40:39.376Z,13.00
2022-11-15T04:43:25.285Z,13.00
2022-11-15T04:46:10.984Z,13.00
2022-11-15T04:48:58.817Z,12.90
2022-11-15T04:51:45.562Z,12.90
2022-11-15T04:54:31.653Z,12.90
2022-11-15T04:57:17.421Z,12.90
2022-11-15T05:00:09.600Z,12.90
2022-11-15T05:03:14.204Z,12.90
2022-11-15T05:06:00.349Z,12.90
2022-11-15T05:08:45.904Z,12.90
2022-11-15T05:11:31.362Z,12.80
2022-11-15T05:14:17.684Z,12.80
2022-11-15T05:17:03.853Z,12.80
2022-11-15T05:19:49.886Z,12.80
2022-11-15T05:22:37.229Z,12.80
2022-11-15T05:25:23.594Z,12.80
2022-11-15T05:28:09.512Z,12.70
2022-11-15T05:31:00.901Z,12.70
2022-11-15T05:33:47.076Z,12.70
2022-11-15T05:36:35.226Z,12.70
2022-11-15T05:39:20.964Z,12.70
2022-11-15T05:42:11.698Z,12.70
2022-11-15T05:44:58.453Z,12.80
2022-11-15T05:47:45.460Z,12.80
2022-11-15T05:50:31.593Z,12.80
2022-11-15T05:53:20.089Z,12.90
2022-11-15T05:56:07.765Z,13.00
2022-11-15T05:58:59.471Z,13.10
2022-11-15T06:01:45.797Z,13.10
2022-11-15T06:04:31.348Z,13.30
2022-11-15T06:07:17.128Z,13.30
2022-11-15T06:10:02.924Z,13.40
2022-11-15T06:12:48.354Z,13.60
2022-11-15T06:15:37.526Z,13.70
2022-11-15T06:18:22.926Z,13.80
2022-11-15T06:21:09.085Z,13.90
2022-11-15T06:23:55.229Z,14.00
2022-11-15T06:26:41.076Z,14.10
2022-11-15T06:29:26.938Z,14.20
2022-11-15T06:32:12.695Z,14.30
2022-11-15T06:34:58.658Z,14.40
2022-11-15T06:37:44.613Z,14.50
2022-11-15T06:40:30.540Z,14.60
2022-11-15T06:43:16.429Z,14.70
2022-11-15T06:46:03.806Z,14.80
2022-11-15T06:48:52.218Z,15.00
2022-11-15T06:51:38.161Z,15.10
2022-11-15T06:54:24.039Z,15.30
2022-11-15T06:57:09.845Z,15.40
2022-11-15T06:59:55.302Z,15.50
2022-11-15T07:02:42.292Z,15.60
2022-11-15T07:05:29.049Z,15.80
2022-11-15T07:08:14.950Z,15.90
2022-11-15T07:11:03.014Z,16.00
2022-11-15T07:13:48.510Z,16.10
2022-11-15T07:16:34.473Z,16.20
2022-11-15T07:19:20.031Z,16.40
2022-11-15T07:22:05.705Z,16.50
2022-11-15T07:24:51.892Z,16.70
2022-11-15T07:27:38.297Z,16.80
2022-11-15T07:30:24.855Z,16.80
2022-11-15T07:33:10.766Z,16.80
2022-11-15T07:36:03.241Z,16.90
2022-11-15T07:38:48.907Z,17.10
2022-11-15T07:41:35.097Z,17.20
2022-11-15T07:44:20.745Z,17.30
2022-11-15T07:47:06.906Z,17.40
2022-11-15T07:49:53.251Z,17.50
2022-11-15T07:52:39.314Z,17.70
2022-11-15T07:55:26.400Z,18.00
2022-11-15T07:58:13.092Z,18.40
2022-11-15T08:00:59.003Z,18.70
2022-11-15T08:03:44.817Z,19.00
2022-11-15T08:06:30.670Z,19.30
2022-11-15T08:09:16.035Z,19.60
2022-11-15T08:12:01.497Z,19.70
2022-11-15T08:14:47.396Z,19.90
2022-11-15T08:17:33.972Z,19.90
2022-11-15T08:20:20.635Z,19.90
2022-11-15T08:23:07.733Z,19.90
2022-11-15T08:25:53.594Z,20.00
2022-11-15T08:28:39.581Z,20.00
2022-11-15T08:31:24.897Z,20.10
2022-11-15T08:34:10.421Z,20.10
2022-11-15T08:36:56.148Z,20.20
2022-11-15T08:39:41.870Z,20.20
2022-11-15T08:42:27.736Z,20.10
2022-11-15T08:45:13.995Z,20.20
2022-11-15T08:48:02.690Z,20.20
2022-11-15T08:50:48.329Z,20.30
2022-11-15T08:53:35.574Z,20.30
2022-11-15T08:56:21.359Z,20.40
2022-11-15T08:59:07.324Z,20.50
2022-11-15T09:01:53.192Z,20.60
2022-11-15T09:04:40.359Z,20.70
2022-11-15T09:07:26.192Z,20.70
2022-11-15T09:10:11.917Z,20.70
2022-11-15T09:13:00.767Z,20.60
2022-11-15T09:15:46.597Z,20.50
2022-11-15T09:18:32.977Z,20.30
2022-11-15T09:21:18.947Z,20.20
2022-11-15T09:24:05.383Z,20.10
2022-11-15T09:26:52.836Z,19.90
2022-11-15T09:29:38.579Z,19.80
2022-11-15T09:32:24.518Z,19.70
2022-11-15T09:35:10.582Z,19.70
2022-11-15T09:37:58.511Z,19.70
2022-11-15T09:40:44.564Z,19.70
2022-11-15T09:43:51.566Z,19.90
2022-11-15T09:46:58.161Z,20.00
2022-11-15T09:50:03.006Z,20.30
2022-11-15T09:52:37.170Z,20.60
2022-11-15T09:55:06.089Z,20.70
2022-11-15T09:57:43.068Z,20.80
2022-11-15T10:00:45.245Z,21.10
2022-11-15T10:03:28.563Z,21.40
2022-11-15T10:06:01.687Z,21.50
2022-11-15T10:09:00.603Z,21.40
2022-11-15T10:11:39.821Z,21.40
2022-11-15T10:14:19.185Z,21.40
2022-11-15T10:17:11.497Z,21.40
2022-11-15T10:20:02.400Z,21.50
2022-11-15T10:22:52.254Z,21.50
2022-11-15T10:25:36.367Z,21.60
2022-11-15T10:28:19.195Z,21.60
2022-11-15T10:30:54.523Z,21.70
2022-11-15T10:33:36.200Z,21.60
2022-11-15T10:36:09.899Z,21.70
2022-11-15T10:38:49.519Z,21.70
2022-11-15T10:41:33.037Z,21.60
2022-11-15T10:44:21.573Z,21.60
2022-11-15T10:46:56.527Z,21.50
2022-11-15T10:49:31.764Z,21.40
2022-11-15T10:52:17.711Z,21.40
2022-11-15T10:55:14.349Z,21.40
2022-11-15T10:57:51.036Z,21.50
2022-11-15T11:00:21.487Z,21.80
2022-11-15T11:02:57.527Z,22.30
2022-11-15T11:05:45.253Z,22.60
2022-11-15T11:08:15.387Z,22.80
2022-11-15T11:11:04.232Z,22.90
2022-11-15T11:13:40.902Z,23.30
2022-11-15T11:16:39.163Z,23.70
2022-11-15T11:19:38.381Z,23.90
2022-11-15T11:22:21.336Z,24.30
2022-11-15T11:25:19.706Z,24.30
2022-11-15T11:28:00.434Z,24.60
2022-11-15T11:30:48.883Z,24.60
2022-11-15T11:33:31.545Z,24.50
2022-11-15T11:36:16.822Z,24.70
2022-11-15T11:38:55.880Z,24.60
2022-11-15T11:41:38.114Z,24.70
2022-11-15T11:44:53.781Z,24.50
2022-11-15T11:47:25.827Z,24.60
2022-11-15T11:49:57.346Z,24.90
2022-11-15T11:52:28.095Z,25.20
2022-11-15T11:55:31.632Z,25.50
2022-11-15T11:58:24.152Z,26.20
2022-11-15T12:00:56.586Z,26.40
2022-11-15T12:04:04.917Z,26.70
2022-11-15T12:06:43.651Z,27.10
2022-11-15T12:09:30.828Z,27.30
2022-11-15T12:12:10.784Z,27.40
2022-11-15T12:14:44.058Z,27.80
2022-11-15T12:17:16.743Z,27.70
2022-11-15T12:19:44.073Z,28.20
2022-11-15T12:22:24.850Z,28.00
2022-11-15T12:25:04.413Z,28.00
2022-11-15T12:27:54.919Z,27.90
2022-11-15T12:30:24.028Z,28.10
2022-11-15T12:32:53.794Z,28.00
2022-11-15T12:35:38.264Z,27.90
2022-11-15T12:38:09.742Z,27.70
2022-11-15T12:41:15.088Z,27.80
2022-11-15T12:43:44.072Z,27.40
2022-11-15T12:46:22.594Z,26.90
2022-11-15T12:48:53.353Z,25.80
2022-11-15T12:51:43.855Z,24.90
2022-11-15T12:54:23.562Z,24.30
2022-11-15T12:57:13.877Z,24.10
2022-11-15T12:59:56.249Z,24.10
2022-11-15T13:02:28.973Z,23.90
2022-11-15T13:05:14.854Z,23.80
2022-11-15T13:07:47.886Z,23.80
2022-11-15T13:10:15.213Z,23.60
2022-11-15T13:12:45.460Z,23.50
2022-11-15T13:15:18.349Z,23.40
2022-11-15T13:17:51.408Z,23.30
2022-11-15T13:20:20.510Z,23.20
2022-11-15T13:22:52.267Z,23.20
2022-11-15T13:25:40.382Z,23.10
2022-11-15T13:28:16.415Z,22.90
2022-11-15T13:31:23.196Z,22.80
2022-11-15T13:33:51.105Z,22.80
2022-11-15T13:36:20.992Z,22.80
2022-11-15T13:39:05.593Z,22.90
2022-11-15T13:41:35.542Z,22.90
2022-11-15T13:44:05.031Z,22.90
2022-11-15T13:46:34.279Z,22.90
2022-11-15T13:49:09.214Z,22.80
2022-11-15T13:51:52.294Z,22.70
2022-11-15T13:54:30.755Z,22.60
2022-11-15T13:57:03.173Z,22.60
2022-11-15T13:59:32.059Z,22.60
2022-11-15T14:02:03.679Z,22.60
2022-11-15T14:04:36.195Z,22.60
2022-11-15T14:07:04.058Z,22.60
2022-11-15T14:09:34.528Z,22.60
2022-11-15T14:12:06.945Z,22.50
2022-11-15T14:14:34.194Z,22.40
2022-11-15T14:17:02.045Z,22.30
2022-11-15T14:19:29.411Z,22.10
2022-11-15T14:22:12.360Z,21.80
2022-11-15T14:24:40.362Z,21.50
2022-11-15T14:27:26.994Z,21.10
2022-11-15T14:29:54.765Z,20.90
2022-11-15T14:32:24.709Z,20.70
2022-11-15T14:35:00.825Z,20.60
2022-11-15T14:37:29.160Z,20.50
2022-11-15T14:39:56.747Z,20.40
2022-11-15T14:42:24.733Z,20.30
2022-11-15T14:44:52.517Z,20.20
2022-11-15T14:47:19.976Z,20.10
2022-11-15T14:49:47.355Z,20.10
2022-11-15T14:52:32.558Z,20.00
2022-11-15T14:55:03.353Z,19.90
2022-11-15T14:57:31.308Z,19.90
2022-11-15T14:59:58.433Z,19.90
2022-11-15T15:02:39.777Z,19.80
2022-11-15T15:05:19.376Z,19.80
2022-11-15T15:07:47.254Z,19.90
2022-11-15T15:10:38.911Z,19.90
2022-11-15T15:13:05.632Z,19.80
2022-11-15T15:15:38.567Z,19.80
2022-11-15T15:18:06.429Z,19.70
2022-11-15T15:20:34.083Z,19.70
2022-11-15T15:23:01.458Z,19.60
2022-11-15T15:25:36.829Z,19.50
2022-11-15T15:28:04.105Z,19.50
2022-11-15T15:30:31.883Z,19.40
2022-11-15T15:32:58.925Z,19.30
2022-11-15T15:35:31.934Z,19.30
2022-11-15T15:37:59.792Z,19.30
2022-11-15T15:40:29.590Z,19.20
2022-11-15T15:42:56.764Z,19.20
2022-11-15T15:45:23.869Z,19.10
2022-11-15T15:47:53.181Z,19.10
2022-11-15T15:50:26.971Z,19.10
2022-11-15T15:52:59.018Z,19.00
2022-11-15T15:55:26.557Z,19.00
2022-11-15T15:57:53.828Z,18.90
2022-11-15T16:00:24.089Z,18.90
2022-11-15T16:02:54.018Z,18.80
2022-11-15T16:05:22.302Z,18.80
2022-11-15T16:07:51.160Z,18.70
2022-11-15T16:10:27.705Z,18.70
2022-11-15T16:12:56.769Z,18.60
2022-11-15T16:15:26.112Z,18.60
2022-11-15T16:17:58.313Z,18.60
2022-11-15T16:20:40.690Z,18.60
2022-11-15T16:23:09.815Z,18.50
2022-11-15T16:25:58.388Z,18.50
2022-11-15T16:28:33.581Z,18.40
2022-11-15T16:31:05.465Z,18.30
2022-11-15T16:33:33.255Z,18.30
2022-11-15T16:36:01.044Z,18.30
2022-11-15T16:38:28.198Z,18.30
2022-11-15T16:40:55.425Z,18.30
2022-11-15T16:43:22.536Z,18.30
2022-11-15T16:45:51.115Z,18.30
2022-11-15T16:48:26.489Z,18.40
2022-11-15T16:50:58.781Z,18.40
2022-11-15T16:53:27.637Z,18.40
2022-11-15T16:55:56.002Z,18.40
2022-11-15T16:58:23.510Z,18.50
2022-11-15T17:00:55.066Z,18.50
2022-11-15T17:03:26.186Z,18.50
2022-11-15T17:05:53.398Z,18.50
2022-11-15T17:08:22.061Z,18.50
2022-11-15T17:10:49.480Z,18.50
2022-11-15T17:13:17.086Z,18.50
2022-11-15T17:15:44.230Z,18.50
2022-11-15T17:18:13.315Z,18.40
2022-11-15T17:20:41.828Z,18.40
2022-11-15T17:23:14.599Z,18.40
2022-11-15T17:25:42.652Z,18.40
2022-11-15T17:28:10.495Z,18.40
2022-11-15T17:30:41.274Z,18.30
2022-11-15T17:33:08.555Z,18.30
2022-11-15T17:35:35.702Z,18.30
2022-11-15T17:38:02.924Z,18.30
2022-11-15T17:40:30.106Z,18.20
2022-11-15T17:42:57.541Z,18.20
2022-11-15T17:45:24.576Z,18.20
2022-11-15T17:47:51.739Z,18.10
2022-11-15T17:50:18.969Z,18.10
2022-11-15T17:52:46.153Z,18.00
2022-11-15T17:55:13.269Z,18.00
2022-11-15T17:57:40.411Z,18.00
2022-11-15T18:00:11.350Z,17.90
2022-11-15T18:02:38.482Z,17.90
2022-11-15T18:05:06.083Z,17.90
2022-11-15T18:07:33.158Z,17.90
2022-11-15T18:10:02.525Z,17.90
2022-11-15T18:12:29.961Z,17.90
2022-11-15T18:14:58.197Z,17.80
2022-11-15T18:17:27.087Z,17.80
2022-11-15T18:19:54.660Z,17.80
2022-11-15T18:22:22.236Z,17.80
2022-11-15T18:24:49.325Z,17.70
2022-11-15T18:27:16.532Z,17.70
2022-11-15T18:29:44.959Z,17.70
2022-11-15T18:32:13.899Z,17.70
2022-11-15T18:34:43.502Z,17.70
2022-11-15T18:37:10.868Z,17.70
2022-11-15T18:39:38.005Z,17.60
2022-11-15T18:42:05.621Z,17.60
2022-11-15T18:44:32.727Z,17.60
2022-11-15T18:46:59.875Z,17.60
2022-11-15T18:49:27.089Z,17.60
2022-11-15T18:51:54.448Z,17.50
2022-11-15T18:54:22.818Z,17.50
2022-11-15T18:56:52.848Z,17.50
2022-11-15T18:59:20.574Z,17.50
2022-11-15T19:01:48.629Z,17.50
2022-11-15T19:04:20.718Z,17.50
2022-11-15T19:06:49.400Z,17.40
2022-11-15T19:09:18.079Z,17.40
2022-11-15T19:11:46.988Z,17.40
2022-11-15T19:14:16.499Z,17.40
2022-11-15T19:16:45.950Z,17.40
2022-11-15T19:19:22.109Z,17.40
2022-11-15T19:21:49.426Z,17.40
2022-11-15T19:24:16.675Z,17.40
2022-11-15T19:26:45.184Z,17.30
2022-11-15T19:29:14.867Z,17.30
2022-11-15T19:31:42.472Z,17.30
2022-11-15T19:34:10.489Z,17.30
2022-11-15T19:36:43.046Z,17.30
2022-11-15T19:39:16.182Z,17.40
2022-11-15T19:41:46.127Z,17.30
2022-11-15T19:44:14.182Z,17.40
2022-11-15T19:46:42.035Z,17.40
2022-11-15T19:49:11.376Z,17.40
2022-11-15T19:51:39.764Z,17.40
2022-11-15T19:54:09.058Z,17.40
2022-11-15T19:56:36.769Z,17.50
2022-11-15T19:59:05.272Z,17.40
2022-11-15T20:01:39.331Z,17.40
2022-11-15T20:04:08.083Z,17.40
2022-11-15T20:06:37.673Z,17.50
2022-11-15T20:09:04.964Z,17.50
2022-11-15T20:11:32.096Z,17.60
2022-11-15T20:14:02.344Z,17.60
2022-11-15T20:16:30.215Z,17.50
2022-11-15T20:18:57.725Z,17.50
2022-11-15T20:21:25.367Z,17.50
2022-11-15T20:23:52.594Z,17.50
2022-11-15T20:26:20.841Z,17.50
2022-11-15T20:28:48.752Z,17.50
2022-11-15T20:31:17.140Z,17.40
2022-11-15T20:33:44.554Z,17.40
2022-11-15T20:36:13.904Z,17.40
2022-11-15T20:38:41.681Z,17.40
2022-11-15T20:41:14.177Z,17.40
2022-11-15T20:43:43.652Z,17.40
2022-11-15T20:46:12.402Z,17.40
2022-11-15T20:48:40.422Z,17.40
2022-11-15T20:51:14.408Z,17.40
2022-11-15T20:53:43.285Z,17.40
2022-11-15T20:56:19.471Z,17.50
2022-11-15T20:58:47.441Z,17.50
2022-11-15T21:01:15.848Z,17.50
2022-11-15T21:03:43.500Z,17.50
2022-11-15T21:06:11.132Z,17.60
2022-11-15T21:08:56.660Z,17.50
2022-11-15T21:11:43.487Z,17.60
2022-11-15T21:14:10.855Z,17.60
2022-11-15T21:16:39.107Z,17.60
2022-11-15T21:19:06.992Z,17.60
2022-11-15T21:21:37.981Z,17.60
2022-11-15T21:24:07.414Z,17.60
2022-11-15T21:26:35.835Z,17.60
2022-11-15T21:29:04.992Z,17.60
2022-11-15T21:31:32.881Z,17.60
2022-11-15T21:34:04.147Z,17.60
2022-11-15T21:36:31.650Z,17.70
2022-11-15T21:38:59.369Z,17.70
2022-11-15T21:41:27.034Z,17.70
2022-11-15T21:43:58.544Z,17.70
2022-11-15T21:46:25.898Z,17.70
2022-11-15T21:48:53.607Z,17.70
2022-11-15T21:51:20.919Z,17.60
2022-11-15T21:53:48.035Z,17.60
2022-11-15T21:56:15.549Z,17.70
2022-11-15T21:58:42.845Z,17.70
2022-11-15T22:01:30.123Z,17.70
2022-11-15T22:03:57.563Z,17.80
2022-11-15T22:06:24.841Z,17.80
2022-11-15T22:08:52.072Z,17.80
2022-11-15T22:11:19.162Z,17.80
2022-11-15T22:13:46.384Z,17.90
2022-11-15T22:16:13.457Z,17.90
2022-11-15T22:18:40.610Z,17.90
2022-11-15T22:21:12.078Z,17.90
2022-11-15T22:23:39.900Z,17.90
2022-11-15T22:26:08.630Z,17.90
2022-11-15T22:28:36.088Z,17.90
2022-11-15T22:31:03.882Z,18.00
2022-11-15T22:33:32.920Z,18.00
2022-11-15T22:36:02.949Z,18.10
2022-11-15T22:38:30.677Z,18.10
2022-11-15T22:40:58.430Z,18.00
2022-11-15T22:43:27.204Z,18.00
2022-11-15T22:45:56.053Z,18.00
2022-11-15T22:48:35.262Z,17.90
2022-11-15T22:51:03.079Z,17.90
2022-11-15T22:53:30.658Z,17.90
2022-11-15T22:56:00.457Z,18.00
2022-11-15T22:58:29.435Z,17.90
2022-11-15T23:01:00.049Z,17.90
2022-11-15T23:03:28.405Z,17.90
2022-11-15T23:06:00.498Z,17.90
2022-11-15T23:08:27.685Z,17.90
2022-11-15T23:11:13.201Z,17.90
2022-11-15T23:13:40.557Z,17.90
2022-11-15T23:16:28.651Z,17.90
2022-11-15T23:19:00.232Z,17.90
2022-11-15T23:21:49.400Z,18.00
2022-11-15T23:24:17.384Z,18.00
2022-11-15T23:26:46.516Z,18.00
2022-11-15T23:29:16.404Z,18.00
2022-11-15T23:32:03.138Z,18.00
2022-11-15T23:34:31.791Z,18.00
2022-11-15T23:36:59.545Z,18.00
2022-11-15T23:39:27.018Z,18.00
2022-11-15T23:41:54.405Z,18.00
2022-11-15T23:44:22.284Z,18.00
2022-11-15T23:46:49.511Z,18.00
2022-11-15T23:49:16.682Z,17.90
2022-11-15T23:51:43.842Z,17.90
2022-11-15T23:54:12.044Z,17.90
2022-11-15T23:56:40.140Z,17.90
2022-11-15T23:59:08.634Z,17.90
